createdAt,value
2019-03-26T00:06:46.418Z,23.9
2019-03-26T00:16:45.634Z,23.9
2019-03-26T00:26:44.846Z,23.9
2019-03-26T00:36:44.061Z,23.9
2019-03-26T00:46:43.275Z,23.9
2019-03-26T00:56:42.491Z,23.9
2019-03-26T01:06:41.707Z,23.8
2019-03-26T01:16:40.920Z,23.9
2019-03-26T01:26:40.139Z,23.9
2019-03-26T01:36:39.350Z,23.8
2019-03-26T01:46:38.563Z,23.8
2019-03-26T01:56:37.778Z,23.8
2019-03-26T02:06:36.992Z,23.8
2019-03-26T02:16:36.212Z,23.8
2019-03-26T02:26:35.419Z,23.8
2019-03-26T02:36:34.633Z,23.8
2019-03-26T02:46:33.851Z,23.8
2019-03-26T02:56:33.067Z,23.8
2019-03-26T03:06:32.279Z,23.8
2019-03-26T03:16:31.489Z,23.7
2019-03-26T03:26:30.703Z,23.7
2019-03-26T03:36:29.916Z,23.7
2019-03-26T03:46:29.130Z,23.7
2019-03-26T03:56:28.341Z,23.7
2019-03-26T04:06:27.553Z,23.8
2019-03-26T04:16:26.768Z,23.8
2019-03-26T04:26:25.979Z,23.8
2019-03-26T04:36:26.441Z,23.8
2019-03-26T04:46:24.406Z,23.8
2019-03-26T04:56:23.620Z,23.8
2019-03-26T05:06:22.834Z,24
2019-03-26T05:16:22.049Z,23.9
2019-03-26T05:26:21.262Z,23.8
2019-03-26T05:36:20.476Z,23.9
2019-03-26T05:46:19.689Z,23.9
2019-03-26T05:56:18.903Z,23.8
2019-03-26T06:06:18.121Z,24
2019-03-26T06:16:17.333Z,23.9
2019-03-26T06:26:16.545Z,23.5
2019-03-26T06:36:15.759Z,23.8
2019-03-26T06:46:14.973Z,23.8
2019-03-26T06:56:14.185Z,23.8
2019-03-26T07:06:13.398Z,23.8
2019-03-26T07:16:12.614Z,23.8
2019-03-26T07:26:11.827Z,23.8
2019-03-26T07:36:11.038Z,23.8
2019-03-26T07:46:10.252Z,23.8
2019-03-26T07:56:09.462Z,23.8
2019-03-26T08:06:08.675Z,23.7
2019-03-26T08:16:07.896Z,23.8
2019-03-26T08:26:07.099Z,23.8
2019-03-26T08:36:06.313Z,23.8
2019-03-26T08:46:05.527Z,23.8
2019-03-26T08:56:04.748Z,23.8
2019-03-26T09:06:29.937Z,23.8
2019-03-26T09:16:29.150Z,23.7
2019-03-26T09:26:28.362Z,23.8
2019-03-26T09:36:27.643Z,23.7
2019-03-26T09:46:26.786Z,23.6
2019-03-26T09:56:29.334Z,23.6
2019-03-26T10:06:25.251Z,23.6
2019-03-26T10:16:24.547Z,23.6
2019-03-26T10:26:23.844Z,23.6
2019-03-26T10:36:23.139Z,23.6
2019-03-26T10:46:22.433Z,23.6
2019-03-26T10:56:21.728Z,23.6
2019-03-26T11:06:20.940Z,23.6
2019-03-26T11:16:20.150Z,23.6
2019-03-26T11:26:19.362Z,23.6
2019-03-26T11:36:18.575Z,23.6
2019-03-26T11:46:17.782Z,23.6
2019-03-26T11:56:16.993Z,23.6
2019-03-26T12:06:16.207Z,23.6
2019-03-26T12:16:15.415Z,23.6
2019-03-26T12:26:14.627Z,23.6
2019-03-26T12:36:13.835Z,23.6
2019-03-26T12:46:13.044Z,23.6
2019-03-26T12:56:12.253Z,23.5
2019-03-26T13:06:11.465Z,23.5
2019-03-26T13:16:10.673Z,23.5
2019-03-26T13:26:09.883Z,23.5
2019-03-26T13:36:09.094Z,23.6
2019-03-26T13:46:08.303Z,23.5
2019-03-26T13:56:07.513Z,23.6
2019-03-26T14:06:06.722Z,23.5
2019-03-26T14:16:05.933Z,23.5
2019-03-26T14:26:05.147Z,23.5
2019-03-26T14:36:04.353Z,23.5
2019-03-26T14:46:03.627Z,23.5
2019-03-26T14:56:02.769Z,23.5
2019-03-26T15:06:04.544Z,23.5
2019-03-26T15:16:01.193Z,23.5
2019-03-26T15:26:00.399Z,23.6
2019-03-26T15:35:59.608Z,23.5
2019-03-26T15:45:58.819Z,23.5
2019-03-26T15:55:58.028Z,23.4
2019-03-26T16:05:57.239Z,23.5
2019-03-26T16:15:56.456Z,23.5
2019-03-26T16:25:55.659Z,23.5
2019-03-26T16:35:54.875Z,23.5
2019-03-26T16:45:54.081Z,23.5
2019-03-26T16:55:53.291Z,23.5
2019-03-26T17:05:52.503Z,23.6
2019-03-26T17:15:51.713Z,23.6
2019-03-26T17:25:50.923Z,23.7
2019-03-26T17:35:50.133Z,23.6
2019-03-26T17:45:49.347Z,23.6
2019-03-26T17:55:48.556Z,23.6
2019-03-26T18:05:47.768Z,23.6
2019-03-26T18:15:46.980Z,23.6
2019-03-26T18:25:46.194Z,23.5
2019-03-26T18:35:45.404Z,23.6
2019-03-26T18:45:44.615Z,23.6
2019-03-26T18:55:43.829Z,23.6
2019-03-26T19:05:31.535Z,23.6
2019-03-26T19:15:30.747Z,23.6
2019-03-26T19:25:29.961Z,23.6
2019-03-26T19:35:29.171Z,23.6
2019-03-26T19:45:28.387Z,23.6
2019-03-26T19:55:27.595Z,23.6
2019-03-26T20:05:26.861Z,23.5
2019-03-26T20:15:26.156Z,23.5
2019-03-26T20:25:25.482Z,23.4
2019-03-26T20:35:24.749Z,23.4
2019-03-26T20:45:24.044Z,23.4
2019-03-26T20:55:23.339Z,23.4
2019-03-26T21:05:22.553Z,23.4
2019-03-26T21:15:21.765Z,23.4
2019-03-26T21:25:20.971Z,23.4
2019-03-26T21:36:46.027Z,23.3
2019-03-26T21:46:45.235Z,23.3
2019-03-26T21:56:44.445Z,23.3
2019-03-26T22:06:43.660Z,23.3
2019-03-26T22:20:55.995Z,23.3
2019-03-26T22:30:55.203Z,23.3
2019-03-26T22:40:54.414Z,23.3
2019-03-26T22:50:53.628Z,23.3
2019-03-26T23:00:52.834Z,23.3
2019-03-26T23:10:52.044Z,23.2
2019-03-26T23:20:51.295Z,23.3
2019-03-26T23:30:50.596Z,23.2
2019-03-26T23:40:49.900Z,23.2
2019-03-26T23:49:19.832Z,23.2
2019-03-26T23:56:30.039Z,23.2
